createdAt,value
2023-10-09T00:01:19.016Z,3.15
2023-10-09T00:03:46.706Z,2.60
2023-10-09T00:06:16.628Z,3.63
2023-10-09T00:11:19.777Z,2.78
2023-10-09T00:13:58.841Z,3.08
2023-10-09T00:16:44.462Z,2.35
2023-10-09T00:19:31.620Z,4.22
2023-10-09T00:22:00.057Z,2.97
2023-10-09T00:24:26.951Z,4.43
2023-10-09T00:27:09.479Z,3.25
2023-10-09T00:29:38.517Z,4.07
2023-10-09T00:32:14.506Z,3.63
2023-10-09T00:34:41.607Z,3.53
2023-10-09T00:37:17.785Z,3.45
2023-10-09T00:39:45.415Z,2.95
2023-10-09T00:42:23.629Z,2.97
2023-10-09T00:44:50.666Z,2.00
2023-10-09T00:47:24.126Z,4.28
2023-10-09T00:50:02.228Z,3.45
2023-10-09T00:52:38.315Z,2.58
2023-10-09T00:55:11.498Z,5.20
2023-10-09T00:57:39.188Z,3.63
2023-10-09T01:00:14.347Z,5.30
2023-10-09T01:02:43.615Z,3.08
2023-10-09T01:05:20.654Z,3.10
2023-10-09T01:07:49.096Z,2.70
2023-10-09T01:10:17.876Z,6.07
2023-10-09T01:12:46.215Z,3.72
2023-10-09T01:15:33.124Z,4.53
2023-10-09T01:18:00.288Z,3.00
2023-10-09T01:20:31.995Z,2.70
2023-10-09T01:23:02.763Z,3.00
2023-10-09T01:25:43.101Z,3.22
2023-10-09T01:28:09.880Z,5.60
2023-10-09T01:30:42.962Z,4.47
2023-10-09T01:33:25.032Z,3.47
2023-10-09T01:35:57.428Z,4.63
2023-10-09T01:38:41.275Z,4.35
2023-10-09T01:41:21.272Z,4.53
2023-10-09T01:43:51.990Z,3.42
2023-10-09T01:46:21.120Z,4.28
2023-10-09T01:48:48.025Z,2.85
2023-10-09T01:51:18.486Z,5.45
2023-10-09T01:53:48.971Z,4.15
2023-10-09T01:56:18.964Z,3.55
2023-10-09T01:58:48.371Z,4.32
2023-10-09T02:01:16.643Z,3.55
2023-10-09T02:03:44.629Z,3.10
2023-10-09T02:06:28.387Z,3.00
2023-10-09T02:08:57.472Z,5.55
2023-10-09T02:11:44.740Z,4.82
2023-10-09T02:14:20.579Z,2.47
2023-10-09T02:17:03.883Z,3.25
2023-10-09T02:19:39.985Z,2.55
2023-10-09T02:22:16.103Z,3.05
2023-10-09T02:24:50.710Z,3.13
2023-10-09T02:27:41.075Z,3.80
2023-10-09T02:30:21.058Z,4.72
2023-10-09T02:32:53.964Z,4.43
2023-10-09T02:35:29.880Z,5.07
2023-10-09T02:37:59.364Z,3.47
2023-10-09T02:40:41.347Z,2.55
2023-10-09T02:43:13.802Z,4.00
2023-10-09T02:45:51.508Z,5.90
2023-10-09T02:48:26.859Z,3.35
2023-10-09T02:50:55.336Z,5.80
2023-10-09T02:53:31.292Z,4.85
2023-10-09T02:56:13.898Z,4.10
2023-10-09T02:58:41.653Z,6.32
2023-10-09T03:01:14.827Z,3.50
2023-10-09T03:03:48.296Z,3.15
2023-10-09T03:06:26.396Z,4.13
2023-10-09T03:08:55.923Z,4.72
2023-10-09T03:11:22.849Z,3.63
2023-10-09T03:13:49.835Z,4.90
2023-10-09T03:16:22.914Z,5.35
2023-10-09T03:18:54.057Z,5.75
2023-10-09T03:21:21.336Z,2.63
2023-10-09T03:23:50.767Z,4.43
2023-10-09T03:26:22.420Z,5.53
2023-10-09T03:28:50.624Z,4.20
2023-10-09T03:31:17.516Z,5.53
2023-10-09T03:33:44.440Z,4.60
2023-10-09T03:36:11.396Z,6.15
2023-10-09T03:38:39.728Z,4.88
2023-10-09T03:41:07.663Z,4.78
2023-10-09T03:43:42.320Z,4.25
2023-10-09T03:46:27.549Z,3.90
2023-10-09T03:48:57.516Z,4.47
2023-10-09T03:53:54.131Z,3.63
2023-10-09T03:56:22.753Z,6.45
2023-10-09T03:58:51.062Z,6.63
2023-10-09T04:01:29.756Z,4.57
2023-10-09T04:04:01.157Z,4.50
2023-10-09T04:06:33.952Z,5.82
2023-10-09T04:09:17.948Z,5.40
2023-10-09T04:11:47.546Z,5.18
2023-10-09T04:14:33.666Z,4.10
2023-10-09T04:17:19.988Z,4.43
2023-10-09T04:19:49.675Z,5.85
2023-10-09T04:22:28.731Z,6.13
2023-10-09T04:24:55.549Z,6.90
2023-10-09T04:27:28.046Z,4.15
2023-10-09T04:29:55.741Z,5.93
2023-10-09T04:32:26.414Z,4.30
2023-10-09T04:35:19.280Z,3.85
2023-10-09T04:37:53.521Z,7.25
2023-10-09T04:40:39.022Z,3.67
2023-10-09T04:43:10.937Z,3.22
2023-10-09T04:46:07.425Z,4.40
2023-10-09T04:48:34.838Z,3.75
2023-10-09T04:51:34.116Z,4.38
2023-10-09T04:54:15.971Z,3.83
2023-10-09T04:56:54.973Z,4.90
2023-10-09T04:59:26.460Z,7.35
2023-10-09T05:02:00.009Z,6.93
2023-10-09T05:04:38.990Z,4.53
2023-10-09T05:07:24.317Z,5.05
2023-10-09T05:09:57.698Z,4.15
2023-10-09T05:12:28.961Z,5.72
2023-10-09T05:15:07.833Z,5.38
2023-10-09T05:17:35.780Z,6.45
2023-10-09T05:20:22.015Z,5.93
2023-10-09T05:23:07.522Z,4.32
2023-10-09T05:26:00.574Z,6.53
2023-10-09T05:28:47.630Z,3.58
2023-10-09T05:31:34.523Z,4.97
2023-10-09T05:34:02.786Z,4.65
2023-10-09T05:36:29.677Z,5.35
2023-10-09T05:39:31.990Z,4.57
2023-10-09T05:42:09.355Z,5.40
2023-10-09T05:44:54.687Z,6.72
2023-10-09T05:47:30.461Z,6.13
2023-10-09T05:50:23.646Z,5.97
2023-10-09T05:52:54.265Z,4.35
2023-10-09T05:55:40.697Z,4.60
2023-10-09T05:58:10.490Z,5.20
2023-10-09T06:00:56.381Z,4.35
2023-10-09T06:03:49.309Z,6.10
2023-10-09T06:06:34.528Z,4.68
2023-10-09T06:09:17.611Z,5.70
2023-10-09T06:11:55.217Z,3.92
2023-10-09T06:14:32.171Z,4.57
2023-10-09T06:17:04.832Z,6.03
2023-10-09T06:19:33.213Z,6.00
2023-10-09T06:22:13.052Z,5.13
2023-10-09T06:24:44.122Z,6.10
2023-10-09T06:27:11.803Z,6.32
2023-10-09T06:29:50.444Z,3.83
2023-10-09T06:32:27.817Z,6.72
2023-10-09T06:35:16.080Z,7.65
2023-10-09T06:38:08.816Z,8.32
2023-10-09T06:40:58.539Z,5.07
2023-10-09T06:43:25.816Z,7.32
2023-10-09T06:45:59.654Z,7.63
2023-10-09T06:48:36.011Z,7.32
2023-10-09T06:51:25.590Z,6.60
2023-10-09T06:53:56.659Z,8.18
2023-10-09T06:56:30.733Z,10.68
2023-10-09T06:58:59.044Z,9.35
2023-10-09T07:01:31.578Z,6.30
2023-10-09T07:04:12.117Z,8.40
2023-10-09T07:06:39.328Z,6.57
2023-10-09T07:09:06.284Z,6.95
2023-10-09T07:11:42.348Z,8.48
2023-10-09T07:14:33.531Z,8.93
2023-10-09T07:17:23.561Z,7.63
2023-10-09T07:19:51.640Z,9.88
2023-10-09T07:22:22.198Z,6.05
2023-10-09T07:25:00.170Z,7.50
2023-10-09T07:27:45.406Z,9.10
2023-10-09T07:30:30.120Z,7.10
2023-10-09T07:33:14.261Z,8.77
2023-10-09T07:35:45.197Z,6.40
2023-10-09T07:38:36.905Z,6.78
2023-10-09T07:41:07.146Z,6.55
2023-10-09T07:43:46.705Z,9.00
2023-10-09T07:46:35.078Z,4.70
2023-10-09T07:49:24.295Z,4.72
2023-10-09T07:51:53.768Z,6.90
2023-10-09T07:54:49.435Z,6.53
2023-10-09T07:57:19.158Z,4.78
2023-10-09T08:00:13.385Z,6.43
2023-10-09T08:02:40.705Z,8.05
2023-10-09T08:05:19.741Z,4.95
2023-10-09T08:08:14.241Z,4.27
2023-10-09T08:11:21.821Z,5.28
2023-10-09T08:13:51.427Z,5.40
2023-10-09T08:16:27.910Z,3.22
2023-10-09T08:18:58.634Z,5.70
2023-10-09T08:21:43.653Z,5.28
2023-10-09T08:24:30.486Z,3.88
2023-10-09T08:27:17.325Z,5.10
2023-10-09T08:29:48.534Z,7.35
2023-10-09T08:35:41.726Z,9.68
2023-10-09T08:38:11.959Z,5.32
2023-10-09T08:40:41.066Z,5.55
2023-10-09T08:43:19.806Z,5.43
2023-10-09T08:46:02.740Z,5.95
2023-10-09T08:48:31.857Z,6.80
2023-10-09T08:50:59.462Z,7.00
2023-10-09T08:53:29.395Z,9.20
2023-10-09T08:55:56.874Z,4.25
2023-10-09T08:58:38.679Z,8.27
2023-10-09T09:01:06.154Z,8.18
2023-10-09T09:03:46.457Z,6.50
2023-10-09T09:06:15.875Z,6.30
2023-10-09T09:08:46.430Z,8.10
2023-10-09T09:11:24.704Z,7.75
2023-10-09T09:14:05.552Z,6.93
2023-10-09T09:16:34.531Z,7.03
2023-10-09T09:19:11.342Z,8.63
2023-10-09T09:21:39.964Z,6.00
2023-10-09T09:24:27.902Z,8.05
2023-10-09T09:27:11.241Z,6.65
2023-10-09T09:29:38.959Z,6.50
2023-10-09T09:32:19.015Z,6.63
2023-10-09T09:34:56.114Z,10.80
2023-10-09T09:37:43.664Z,5.72
2023-10-09T09:40:31.411Z,5.85
2023-10-09T09:43:12.572Z,6.10
2023-10-09T09:45:47.431Z,6.07
2023-10-09T09:48:17.489Z,6.20
2023-10-09T09:50:46.662Z,15.05
2023-10-09T09:53:19.741Z,7.30
2023-10-09T09:55:57.710Z,10.52
2023-10-09T09:58:28.786Z,9.55
2023-10-09T10:01:03.285Z,12.18
2023-10-09T10:03:42.308Z,8.25
2023-10-09T10:06:13.684Z,8.15
2023-10-09T10:08:43.009Z,6.95
2023-10-09T10:11:53.512Z,8.93
2023-10-09T10:14:30.408Z,6.95
2023-10-09T10:17:07.402Z,9.25
2023-10-09T10:20:19.345Z,9.00
2023-10-09T10:22:49.415Z,8.90
2023-10-09T10:25:34.355Z,13.50
2023-10-09T10:28:40.267Z,12.00
2023-10-09T10:31:11.278Z,11.88
2023-10-09T10:33:55.015Z,9.98
2023-10-09T10:36:26.226Z,14.63
2023-10-09T10:39:22.144Z,14.75
2023-10-09T10:41:56.864Z,14.02
2023-10-09T10:44:43.987Z,10.77
2023-10-09T10:47:26.480Z,16.05
2023-10-09T10:49:59.911Z,14.00
2023-10-09T10:52:37.291Z,14.32
2023-10-09T10:55:39.652Z,13.15
2023-10-09T10:58:25.105Z,15.98
2023-10-09T11:00:57.965Z,12.98
2023-10-09T11:03:52.923Z,16.25
2023-10-09T11:06:36.798Z,16.05
2023-10-09T11:09:23.485Z,13.73
2023-10-09T11:11:57.014Z,9.10
2023-10-09T11:14:26.748Z,25.70
2023-10-09T11:16:59.820Z,18.20
2023-10-09T11:19:32.980Z,20.73
2023-10-09T11:22:07.568Z,16.20
2023-10-09T11:24:35.967Z,10.48
2023-10-09T11:27:07.591Z,17.50
2023-10-09T11:29:44.539Z,18.02
2023-10-09T11:32:21.051Z,12.32
2023-10-09T11:34:55.298Z,17.27
2023-10-09T11:37:31.133Z,19.38
2023-10-09T11:39:59.311Z,16.08
2023-10-09T11:42:51.798Z,17.15
2023-10-09T11:45:38.616Z,15.63
2023-10-09T11:48:48.295Z,14.60
2023-10-09T11:53:51.364Z,14.32
2023-10-09T11:56:21.081Z,15.85
2023-10-09T11:58:51.547Z,16.75
2023-10-09T12:01:21.670Z,18.83
2023-10-09T12:03:52.702Z,19.85
2023-10-09T12:06:24.048Z,20.35
2023-10-09T12:08:51.522Z,15.07
2023-10-09T12:11:24.973Z,19.20
2023-10-09T12:13:57.699Z,21.80
2023-10-09T12:16:29.912Z,13.35
2023-10-09T12:18:57.521Z,17.90
2023-10-09T12:21:24.981Z,18.23
2023-10-09T12:23:52.163Z,17.60
2023-10-09T12:26:19.030Z,18.38
2023-10-09T12:28:47.872Z,17.52
2023-10-09T12:31:21.508Z,18.42
2023-10-09T12:33:49.141Z,16.45
2023-10-09T12:36:21.595Z,14.95
2023-10-09T12:38:54.499Z,19.20
2023-10-09T12:41:27.412Z,31.67
2023-10-09T12:43:55.650Z,21.95
2023-10-09T12:46:27.010Z,17.38
2023-10-09T12:48:57.634Z,17.45
2023-10-09T12:51:31.406Z,15.15
2023-10-09T12:53:58.795Z,17.40
2023-10-09T12:56:39.232Z,11.73
2023-10-09T12:59:08.410Z,19.02
2023-10-09T13:01:44.434Z,13.25
2023-10-09T13:04:19.093Z,14.80
2023-10-09T13:06:46.956Z,12.68
2023-10-09T13:09:37.433Z,18.58
2023-10-09T13:12:04.682Z,13.45
2023-10-09T13:14:35.408Z,16.13
2023-10-09T13:17:10.848Z,20.50
2023-10-09T13:19:38.077Z,14.13
2023-10-09T13:22:05.167Z,20.27
2023-10-09T13:24:32.214Z,25.10
2023-10-09T13:27:09.048Z,17.23
2023-10-09T13:29:35.973Z,19.70
2023-10-09T13:32:04.661Z,14.65
2023-10-09T13:34:31.636Z,19.25
2023-10-09T13:37:01.020Z,22.63
2023-10-09T13:39:28.276Z,18.15
2023-10-09T13:42:01.504Z,18.70
2023-10-09T13:44:29.346Z,20.60
2023-10-09T13:47:00.809Z,17.40
2023-10-09T13:49:33.947Z,26.55
2023-10-09T13:52:04.824Z,20.45
2023-10-09T13:54:37.920Z,16.27
2023-10-09T13:57:12.119Z,18.67
2023-10-09T13:59:45.110Z,14.15
2023-10-09T14:02:19.504Z,16.65
2023-10-09T14:04:49.884Z,16.27
2023-10-09T14:07:22.126Z,14.57
2023-10-09T14:10:08.919Z,17.33
2023-10-09T14:12:41.431Z,19.05
2023-10-09T14:15:12.586Z,16.92
2023-10-09T14:17:44.150Z,22.30
2023-10-09T14:20:30.144Z,16.23
2023-10-09T14:22:57.383Z,21.30
2023-10-09T14:25:24.664Z,18.27
2023-10-09T14:27:54.316Z,16.73
2023-10-09T14:33:02.879Z,15.23
2023-10-09T14:35:31.783Z,17.33
2023-10-09T14:37:58.939Z,17.60
2023-10-09T14:40:32.995Z,16.30
2023-10-09T14:43:00.006Z,15.23
2023-10-09T14:45:27.426Z,21.42
2023-10-09T14:47:55.565Z,12.85
2023-10-09T14:50:23.602Z,19.05
2023-10-09T14:52:52.463Z,24.67
2023-10-09T14:55:22.814Z,19.80
2023-10-09T14:57:53.775Z,21.30
2023-10-09T15:00:24.911Z,30.10
2023-10-09T15:02:56.189Z,23.85
2023-10-09T15:05:24.426Z,71.38
2023-10-09T15:07:51.747Z,20.90
2023-10-09T15:10:19.673Z,17.40
2023-10-09T15:12:50.081Z,24.92
2023-10-09T15:15:18.453Z,16.08
2023-10-09T15:17:49.562Z,19.70
2023-10-09T15:20:18.314Z,14.00
2023-10-09T15:22:46.336Z,16.08
2023-10-09T15:25:18.747Z,15.52
2023-10-09T15:27:45.786Z,21.60
2023-10-09T15:30:16.167Z,20.48
2023-10-09T15:32:46.220Z,28.15
2023-10-09T15:35:14.660Z,16.88
2023-10-09T15:37:44.674Z,26.73
2023-10-09T15:40:20.992Z,21.70
2023-10-09T15:42:51.663Z,16.48
2023-10-09T15:45:23.122Z,19.10
2023-10-09T15:47:53.018Z,39.35
2023-10-09T15:52:50.724Z,14.48
2023-10-09T15:55:22.129Z,32.80
2023-10-09T15:58:00.294Z,52.50
2023-10-09T16:00:30.214Z,63.95
2023-10-09T16:02:57.795Z,163.85
2023-10-09T16:05:28.633Z,22.73
2023-10-09T16:07:56.636Z,16.60
2023-10-09T16:10:24.396Z,18.15
2023-10-09T16:12:54.194Z,16.85
2023-10-09T16:18:07.877Z,17.05
2023-10-09T16:20:34.925Z,19.02
2023-10-09T16:23:05.797Z,18.13
2023-10-09T16:25:35.429Z,14.32
2023-10-09T16:28:03.804Z,19.08
2023-10-09T16:30:31.030Z,22.27
2023-10-09T16:32:58.417Z,20.48
2023-10-09T16:35:25.624Z,19.88
2023-10-09T16:37:54.199Z,16.45
2023-10-09T16:40:22.111Z,16.48
2023-10-09T16:42:54.872Z,20.17
2023-10-09T16:45:22.004Z,14.40
2023-10-09T16:48:00.526Z,14.05
2023-10-09T16:50:30.009Z,16.85
2023-10-09T16:52:57.485Z,13.75
2023-10-09T16:55:28.532Z,18.15
2023-10-09T16:57:57.266Z,16.63
2023-10-09T17:00:32.564Z,15.95
2023-10-09T17:03:00.595Z,21.90
2023-10-09T17:05:34.563Z,19.58
2023-10-09T17:08:02.025Z,15.30
2023-10-09T17:10:29.811Z,16.80
2023-10-09T17:12:58.348Z,17.65
2023-10-09T17:15:34.302Z,17.95
2023-10-09T17:18:04.486Z,19.10
2023-10-09T17:20:31.794Z,16.38
2023-10-09T17:23:01.915Z,19.83
2023-10-09T17:25:32.536Z,18.67
2023-10-09T17:28:01.373Z,14.20
2023-10-09T17:30:29.241Z,14.90
2023-10-09T17:32:59.504Z,14.07
2023-10-09T17:35:29.616Z,14.43
2023-10-09T17:37:58.251Z,16.30
2023-10-09T17:40:29.416Z,21.08
2023-10-09T17:42:57.509Z,12.73
2023-10-09T17:45:26.314Z,18.23
2023-10-09T17:47:55.297Z,11.35
2023-10-09T17:50:23.829Z,17.75
2023-10-09T17:52:51.662Z,13.07
2023-10-09T17:55:19.605Z,16.42
2023-10-09T17:57:47.871Z,21.42
2023-10-09T18:00:23.860Z,18.63
2023-10-09T18:02:51.708Z,15.45
2023-10-09T18:05:23.439Z,18.48
2023-10-09T18:07:51.588Z,14.60
2023-10-09T18:10:19.443Z,13.57
2023-10-09T18:12:47.455Z,13.25
2023-10-09T18:15:16.513Z,15.23
2023-10-09T18:17:45.926Z,15.45
2023-10-09T18:20:14.282Z,17.65
2023-10-09T18:22:43.060Z,17.20
2023-10-09T18:25:11.279Z,14.60
2023-10-09T18:27:39.558Z,19.25
2023-10-09T18:30:07.780Z,21.38
2023-10-09T18:32:34.961Z,17.75
2023-10-09T18:35:02.438Z,18.33
2023-10-09T18:37:32.220Z,17.23
2023-10-09T18:40:01.116Z,18.45
2023-10-09T18:42:30.786Z,15.40
2023-10-09T18:44:58.793Z,16.13
2023-10-09T18:47:26.728Z,18.60
2023-10-09T18:49:54.759Z,19.08
2023-10-09T18:52:22.606Z,22.40
2023-10-09T18:54:51.969Z,17.98
2023-10-09T18:57:22.496Z,23.27
2023-10-09T18:59:54.980Z,16.65
2023-10-09T19:02:24.696Z,20.95
2023-10-09T19:04:54.806Z,22.63
2023-10-09T19:07:23.206Z,21.23
2023-10-09T19:09:51.135Z,14.88
2023-10-09T19:12:19.196Z,32.55
2023-10-09T19:14:49.059Z,36.30
2023-10-09T19:19:44.481Z,20.15
2023-10-09T19:22:14.877Z,21.85
2023-10-09T19:24:43.794Z,17.77
2023-10-09T19:27:13.259Z,27.17
2023-10-09T19:29:40.895Z,19.08
2023-10-09T19:32:09.696Z,19.80
2023-10-09T19:34:37.202Z,15.40
2023-10-09T19:37:10.522Z,20.27
2023-10-09T19:39:38.056Z,15.52
2023-10-09T19:42:05.658Z,17.33
2023-10-09T19:44:32.967Z,22.23
2023-10-09T19:47:00.883Z,20.85
2023-10-09T19:49:30.440Z,17.38
2023-10-09T19:51:57.813Z,22.15
2023-10-09T19:54:25.000Z,16.98
2023-10-09T19:56:53.328Z,15.93
2023-10-09T19:59:20.917Z,30.60
2023-10-09T20:01:49.575Z,26.83
2023-10-09T20:04:17.140Z,29.13
2023-10-09T20:06:46.543Z,33.70
2023-10-09T20:09:14.675Z,24.20
2023-10-09T20:11:42.762Z,13.25
2023-10-09T20:14:11.066Z,27.92
2023-10-09T20:16:38.626Z,23.23
2023-10-09T20:19:09.862Z,26.75
2023-10-09T20:21:37.275Z,19.45
2023-10-09T20:24:19.257Z,18.35
2023-10-09T20:26:46.076Z,17.95
2023-10-09T20:29:15.000Z,21.35
2023-10-09T20:31:46.559Z,21.95
2023-10-09T20:34:14.208Z,16.77
2023-10-09T20:36:44.969Z,16.63
2023-10-09T20:39:13.392Z,19.05
2023-10-09T20:41:40.881Z,18.42
2023-10-09T20:44:09.264Z,19.55
2023-10-09T20:46:38.471Z,23.13
2023-10-09T20:49:05.460Z,14.65
2023-10-09T20:51:42.541Z,21.08
2023-10-09T20:54:17.644Z,17.20
2023-10-09T20:56:44.501Z,19.92
2023-10-09T20:59:12.848Z,16.23
2023-10-09T21:01:39.956Z,22.52
2023-10-09T21:04:08.508Z,20.42
2023-10-09T21:06:35.356Z,13.30
2023-10-09T21:09:03.281Z,17.38
2023-10-09T21:11:30.130Z,20.42
2023-10-09T21:13:57.214Z,20.35
2023-10-09T21:16:24.107Z,14.43
2023-10-09T21:18:55.895Z,13.48
2023-10-09T21:21:23.834Z,15.80
2023-10-09T21:23:50.885Z,18.52
2023-10-09T21:26:24.425Z,17.92
2023-10-09T21:28:52.957Z,15.75
2023-10-09T21:31:22.264Z,14.68
2023-10-09T21:33:50.832Z,18.08
2023-10-09T21:36:18.857Z,21.73
2023-10-09T21:38:45.858Z,18.75
2023-10-09T21:41:13.673Z,15.98
2023-10-09T21:43:41.932Z,18.60
2023-10-09T21:46:11.017Z,16.05
2023-10-09T21:48:39.231Z,20.80
2023-10-09T21:51:09.764Z,20.13
2023-10-09T21:53:37.267Z,15.57
2023-10-09T21:56:08.912Z,16.40
2023-10-09T21:58:36.164Z,16.10
2023-10-09T22:01:04.517Z,23.17
2023-10-09T22:03:32.410Z,19.45
2023-10-09T22:06:00.399Z,19.50
2023-10-09T22:08:27.442Z,18.60
2023-10-09T22:10:54.760Z,17.35
2023-10-09T22:13:23.085Z,18.08
2023-10-09T22:15:50.203Z,22.48
2023-10-09T22:18:25.539Z,20.15
2023-10-09T22:20:58.491Z,24.67
2023-10-09T22:23:36.882Z,19.02
2023-10-09T22:26:05.298Z,16.00
2023-10-09T22:28:35.977Z,16.83
2023-10-09T22:31:05.645Z,18.23
2023-10-09T22:33:59.307Z,20.45
2023-10-09T22:36:46.883Z,17.90
2023-10-09T22:39:26.414Z,18.38
2023-10-09T22:41:55.884Z,18.38
2023-10-09T22:44:23.390Z,17.23
2023-10-09T22:46:53.201Z,20.73
2023-10-09T22:49:20.260Z,17.73
2023-10-09T22:51:52.113Z,18.23
2023-10-09T22:54:35.814Z,21.52
2023-10-09T22:57:04.904Z,19.35
2023-10-09T22:59:33.405Z,16.50
2023-10-09T23:03:41.583Z,18.55
2023-10-09T23:06:14.762Z,19.58
2023-10-09T23:08:43.033Z,17.15
2023-10-09T23:11:10.119Z,20.52
2023-10-09T23:14:15.302Z,20.45
2023-10-09T23:17:08.861Z,20.67
2023-10-09T23:19:45.493Z,19.88
2023-10-09T23:22:21.924Z,25.00
2023-10-09T23:24:54.707Z,19.95
2023-10-09T23:27:41.619Z,26.27
2023-10-09T23:30:25.825Z,20.27
2023-10-09T23:33:09.254Z,24.45
2023-10-09T23:35:56.558Z,20.70
2023-10-09T23:38:33.536Z,20.23
2023-10-09T23:41:13.627Z,22.67
2023-10-09T23:43:46.403Z,18.15
2023-10-09T23:46:18.499Z,17.05
2023-10-09T23:48:46.350Z,16.02
2023-10-09T23:51:20.297Z,17.15
2023-10-09T23:53:53.501Z,18.45
2023-10-09T23:56:41.066Z,20.63
2023-10-09T23:59:13.102Z,14.45
